Bodrum-Imsık Airport

LTBV · 穆拉省, 土耳其

罗盘
风向 的 风向 250° Bodrum-Imsık Airport 6/24
风: 6 kt, 2 beaufort

6 kt

1 kt
改变
0 ft 2.000 4.000 6.000 8.000 10.000
Cloud Cloud Cloud Cloud
SCT 3.000
Cloud Cloud Cloud Cloud Cloud Cloud
BKN 9.000
METAR LTFE 012350Z 25006KT 9999 SCT030 BKN090 15/09 Q1013 NOSIG RMK RWY10 25007KT

METAR Bodrum-Imsık Airport - LTBV/BXN

Bodrum-Imsık Airport是,土耳其中的小机场。 该机场位于纬度37,14010和经度27,66970。 该机场有一条跑道: 6/24. 本场的ICAO机场代码为LTBV。 该机场的IATA代码为BXN。 机场在Istanbul FIR中。

该航空气象观测是针对Milas Bodrum International Airport在2024年3月2日 02:50, 当地时间进行的。

机场观察

风向为250°,速度为6 kt。

可见度为10 km 或者更多。

有疏云,零星散落的云朵在3.000 ft的高度 和 碎云在9.000 ft的高度。 破损或更高的上限为9.000 ft。

温度和风寒是15 °C。 露点为9 °C,相对湿度为68%。 海平面上的气压为1013 hPa (QNH)。

白天

今天,太阳从07:38升起,在19:04降落。 这适用于Bodrum-Imsık Airport,世界夏令时可能有所不同。 当地时间与世界标准时间之间的时差为+3 小时。 当前,没有夏令时有效。

公司介绍

我们没有关于这个机场的公司信息。

体会

到Vliegles.nl去找飞行课程,跳伞和其他飞行体验。 浏览页面,了解Bodrum-Imsık Airport附近所有可用的活动。 你也可以使用搜索功能来寻找你所在地附近的特定飞行课程、跳伞或其他飞行体验。

跑道

Id 标题 侧风 逆风 侧风 %
6/24 063°-243° 6 kt 12 %

逆风成分最大的方向会被突出显示,并用于横风计算。 这并不一定意味着这个方向在使用。

乌云

3.000 ft SCT 疏云,零星散落的云朵
9.000 ft BKN 碎云

温度 & 天气

温度 15 °C
露点 9 °C
相对湿度 68%
Kp-index 0 (0-9)

评论

RWY10 25007KT

白天

日出
07:39 (4:21)
中午
13:21
日落
19:03

小工具

你想在你的网站上有一个关于Bodrum-Imsık Airport的当前航空天气(METAR)的小部件吗?

显示HTML代码
?>